sensor_id;sensor_type;location;lat;lon;timestamp;noise_LAeq;noise_LA_min;noise_LA_max;noise_LA01;noise_LA95
58303;Laerm;44109;52.398;7.024;2023-10-31T00:00:13;65.88;38.14;98.00;;
58303;Laerm;44109;52.398;7.024;2023-10-31T00:02:41;59.21;36.89;93.56;;
58303;Laerm;44109;52.398;7.024;2023-10-31T00:05:08;65.78;34.97;100.05;;
58303;Laerm;44109;52.398;7.024;2023-10-31T00:07:37;64.04;34.61;98.45;;
58303;Laerm;44109;52.398;7.024;2023-10-31T00:10:05;64.78;39.13;99.64;;
58303;Laerm;44109;52.398;7.024;2023-10-31T00:12:32;62.54;36.88;96.74;;
58303;Laerm;44109;52.398;7.024;2023-10-31T00:15:00;67.78;39.83;98.38;;
58303;Laerm;44109;52.398;7.024;2023-10-31T00:17:27;73.07;46.45;100.67;;
58303;Laerm;44109;52.398;7.024;2023-10-31T00:19:55;76.23;51.72;101.73;;
58303;Laerm;44109;52.398;7.024;2023-10-31T00:22:22;72.75;48.69;99.76;;
58303;Laerm;44109;52.398;7.024;2023-10-31T00:24:51;73.10;46.25;101.79;;
58303;Laerm;44109;52.398;7.024;2023-10-31T00:27:18;72.07;46.88;100.06;;
58303;Laerm;44109;52.398;7.024;2023-10-31T00:29:45;71.10;45.96;99.47;;
58303;Laerm;44109;52.398;7.024;2023-10-31T00:32:13;71.51;43.68;101.15;;
58303;Laerm;44109;52.398;7.024;2023-10-31T00:34:40;70.55;41.96;101.03;;
58303;Laerm;44109;52.398;7.024;2023-10-31T00:37:07;68.59;45.93;99.77;;
58303;Laerm;44109;52.398;7.024;2023-10-31T00:39:35;71.55;42.84;102.50;;
58303;Laerm;44109;52.398;7.024;2023-10-31T00:42:04;68.77;43.91;98.94;;
58303;Laerm;44109;52.398;7.024;2023-10-31T00:44:31;69.19;41.75;99.65;;
58303;Laerm;44109;52.398;7.024;2023-10-31T00:46:59;70.99;44.95;99.18;;
58303;Laerm;44109;52.398;7.024;2023-10-31T00:49:26;70.77;45.27;100.81;;
58303;Laerm;44109;52.398;7.024;2023-10-31T00:51:53;69.72;42.57;100.81;;
58303;Laerm;44109;52.398;7.024;2023-10-31T00:54:21;61.94;41.86;94.80;;
58303;Laerm;44109;52.398;7.024;2023-10-31T00:56:48;67.01;41.32;101.76;;
58303;Laerm;44109;52.398;7.024;2023-10-31T00:59:17;73.50;46.50;102.30;;
58303;Laerm;44109;52.398;7.024;2023-10-31T01:01:44;66.76;42.58;97.71;;
58303;Laerm;44109;52.398;7.024;2023-10-31T01:04:14;68.26;39.46;102.61;;
58303;Laerm;44109;52.398;7.024;2023-10-31T01:06:42;54.96;38.15;87.03;;
58303;Laerm;44109;52.398;7.024;2023-10-31T01:09:10;66.19;37.93;102.19;;
58303;Laerm;44109;52.398;7.024;2023-10-31T01:11:39;66.81;37.55;100.62;;
58303;Laerm;44109;52.398;7.024;2023-10-31T01:14:06;59.61;36.02;94.21;;
58303;Laerm;44109;52.398;7.024;2023-10-31T01:16:35;66.78;35.47;101.23;;
58303;Laerm;44109;52.398;7.024;2023-10-31T01:19:03;68.20;38.77;99.84;;
58303;Laerm;44109;52.398;7.024;2023-10-31T01:21:30;67.62;36.47;100.50;;
58303;Laerm;44109;52.398;7.024;2023-10-31T01:23:58;68.29;37.23;99.68;;
58303;Laerm;44109;52.398;7.024;2023-10-31T01:26:25;64.04;35.59;98.80;;
58303;Laerm;44109;52.398;7.024;2023-10-31T01:28:53;71.71;36.35;101.25;;
58303;Laerm;44109;52.398;7.024;2023-10-31T01:31:20;70.18;35.68;103.02;;
58303;Laerm;44109;52.398;7.024;2023-10-31T01:33:49;58.42;34.56;92.10;;
58303;Laerm;44109;52.398;7.024;2023-10-31T01:36:16;62.80;34.98;97.71;;
58303;Laerm;44109;52.398;7.024;2023-10-31T01:38:44;65.87;33.67;98.97;;
58303;Laerm;44109;52.398;7.024;2023-10-31T01:41:12;59.19;33.25;94.33;;
58303;Laerm;44109;52.398;7.024;2023-10-31T01:43:39;51.64;34.40;84.90;;
58303;Laerm;44109;52.398;7.024;2023-10-31T01:46:07;49.83;36.46;72.15;;
58303;Laerm;44109;52.398;7.024;2023-10-31T01:48:35;62.19;35.32;96.71;;
58303;Laerm;44109;52.398;7.024;2023-10-31T01:51:04;65.15;35.88;100.78;;
58303;Laerm;44109;52.398;7.024;2023-10-31T01:53:33;68.22;44.64;99.99;;
58303;Laerm;44109;52.398;7.024;2023-10-31T01:56:03;60.04;48.45;89.38;;
58303;Laerm;44109;52.398;7.024;2023-10-31T01:58:34;55.18;44.36;86.42;;
58303;Laerm;44109;52.398;7.024;2023-10-31T02:01:04;50.97;41.51;76.90;;
58303;Laerm;44109;52.398;7.024;2023-10-31T02:03:31;52.85;42.58;75.09;;
58303;Laerm;44109;52.398;7.024;2023-10-31T02:05:59;52.10;40.73;83.87;;
58303;Laerm;44109;52.398;7.024;2023-10-31T02:08:28;53.67;42.60;81.52;;
58303;Laerm;44109;52.398;7.024;2023-10-31T02:10:55;49.72;40.83;60.06;;
58303;Laerm;44109;52.398;7.024;2023-10-31T02:13:23;52.22;43.77;62.02;;
58303;Laerm;44109;52.398;7.024;2023-10-31T02:15:50;57.81;47.27;70.72;;
58303;Laerm;44109;52.398;7.024;2023-10-31T02:18:18;54.03;46.33;59.28;;
58303;Laerm;44109;52.398;7.024;2023-10-31T02:20:45;49.98;39.36;64.80;;
58303;Laerm;44109;52.398;7.024;2023-10-31T02:23:16;50.48;42.27;65.32;;
58303;Laerm;44109;52.398;7.024;2023-10-31T02:25:44;53.07;44.79;70.81;;
58303;Laerm;44109;52.398;7.024;2023-10-31T02:28:11;52.54;41.27;82.85;;
58303;Laerm;44109;52.398;7.024;2023-10-31T02:30:38;59.37;43.39;94.23;;
58303;Laerm;44109;52.398;7.024;2023-10-31T02:33:06;59.77;39.58;93.01;;
58303;Laerm;44109;52.398;7.024;2023-10-31T02:35:33;58.70;39.46;91.46;;
58303;Laerm;44109;52.398;7.024;2023-10-31T02:38:01;65.51;37.78;96.65;;
58303;Laerm;44109;52.398;7.024;2023-10-31T02:40:29;50.25;38.42;77.86;;
58303;Laerm;44109;52.398;7.024;2023-10-31T02:42:57;57.89;43.26;80.05;;
58303;Laerm;44109;52.398;7.024;2023-10-31T02:45:24;53.35;44.62;82.79;;
58303;Laerm;44109;52.398;7.024;2023-10-31T02:47:52;59.14;40.23;92.09;;
58303;Laerm;44109;52.398;7.024;2023-10-31T02:50:19;64.44;41.19;97.66;;
58303;Laerm;44109;52.398;7.024;2023-10-31T02:52:47;58.38;40.23;90.19;;
58303;Laerm;44109;52.398;7.024;2023-10-31T02:55:14;60.83;41.73;92.42;;
58303;Laerm;44109;52.398;7.024;2023-10-31T02:57:43;65.79;40.40;100.41;;
58303;Laerm;44109;52.398;7.024;2023-10-31T03:00:12;65.93;41.17;101.93;;
58303;Laerm;44109;52.398;7.024;2023-10-31T03:02:39;53.95;41.46;85.15;;
58303;Laerm;44109;52.398;7.024;2023-10-31T03:05:07;52.27;37.83;83.09;;
58303;Laerm;44109;52.398;7.024;2023-10-31T03:07:34;59.16;40.44;91.24;;
58303;Laerm;44109;52.398;7.024;2023-10-31T03:10:02;56.30;36.73;86.85;;
58303;Laerm;44109;52.398;7.024;2023-10-31T03:12:29;59.79;39.82;93.01;;
58303;Laerm;44109;52.398;7.024;2023-10-31T03:14:58;61.29;39.25;93.87;;
58303;Laerm;44109;52.398;7.024;2023-10-31T03:17:26;53.27;42.84;83.75;;
58303;Laerm;44109;52.398;7.024;2023-10-31T03:19:54;52.92;41.10;84.41;;
58303;Laerm;44109;52.398;7.024;2023-10-31T03:22:21;62.82;41.08;93.79;;
58303;Laerm;44109;52.398;7.024;2023-10-31T03:24:48;58.87;40.02;88.05;;
58303;Laerm;44109;52.398;7.024;2023-10-31T03:27:16;68.78;39.90;100.35;;
58303;Laerm;44109;52.398;7.024;2023-10-31T03:29:43;63.63;38.08;96.06;;
58303;Laerm;44109;52.398;7.024;2023-10-31T03:32:13;60.50;40.19;93.48;;
58303;Laerm;44109;52.398;7.024;2023-10-31T03:34:40;62.00;40.22;91.94;;
58303;Laerm;44109;52.398;7.024;2023-10-31T03:37:07;58.71;38.49;92.46;;
58303;Laerm;44109;52.398;7.024;2023-10-31T03:39:35;63.27;40.42;97.28;;
58303;Laerm;44109;52.398;7.024;2023-10-31T03:42:02;51.53;39.77;79.13;;
58303;Laerm;44109;52.398;7.024;2023-10-31T03:44:31;54.30;38.17;86.33;;
58303;Laerm;44109;52.398;7.024;2023-10-31T03:46:58;57.33;37.74;89.62;;
58303;Laerm;44109;52.398;7.024;2023-10-31T03:49:27;55.36;37.10;90.53;;
58303;Laerm;44109;52.398;7.024;2023-10-31T03:51:55;61.86;37.55;94.94;;
58303;Laerm;44109;52.398;7.024;2023-10-31T03:54:22;47.56;38.78;58.59;;
58303;Laerm;44109;52.398;7.024;2023-10-31T03:56:49;47.39;38.91;59.41;;
58303;Laerm;44109;52.398;7.024;2023-10-31T03:59:17;49.59;36.03;80.31;;
58303;Laerm;44109;52.398;7.024;2023-10-31T04:01:44;47.00;36.76;59.46;;
58303;Laerm;44109;52.398;7.024;2023-10-31T04:04:11;49.48;36.83;73.08;;
58303;Laerm;44109;52.398;7.024;2023-10-31T04:06:40;54.61;37.38;89.51;;
58303;Laerm;44109;52.398;7.024;2023-10-31T04:09:08;48.20;36.46;58.84;;
58303;Laerm;44109;52.398;7.024;2023-10-31T04:11:36;59.94;39.72;90.81;;
58303;Laerm;44109;52.398;7.024;2023-10-31T04:14:04;49.26;38.81;75.72;;
58303;Laerm;44109;52.398;7.024;2023-10-31T04:16:32;53.03;37.53;87.48;;
58303;Laerm;44109;52.398;7.024;2023-10-31T04:18:59;47.72;38.59;57.57;;
58303;Laerm;44109;52.398;7.024;2023-10-31T04:21:26;46.93;36.71;56.87;;
58303;Laerm;44109;52.398;7.024;2023-10-31T04:23:55;55.66;36.83;88.41;;
58303;Laerm;44109;52.398;7.024;2023-10-31T04:26:22;45.90;36.19;65.18;;
58303;Laerm;44109;52.398;7.024;2023-10-31T04:28:50;46.57;35.90;63.27;;
58303;Laerm;44109;52.398;7.024;2023-10-31T04:31:17;46.48;36.93;57.42;;
58303;Laerm;44109;52.398;7.024;2023-10-31T04:33:44;46.57;37.19;70.99;;
58303;Laerm;44109;52.398;7.024;2023-10-31T04:36:12;46.09;35.57;55.10;;
58303;Laerm;44109;52.398;7.024;2023-10-31T04:38:39;47.14;36.39;76.00;;
58303;Laerm;44109;52.398;7.024;2023-10-31T04:41:09;46.58;35.48;61.47;;
58303;Laerm;44109;52.398;7.024;2023-10-31T04:43:36;45.67;35.38;55.63;;
58303;Laerm;44109;52.398;7.024;2023-10-31T04:46:04;45.89;34.88;58.41;;
58303;Laerm;44109;52.398;7.024;2023-10-31T04:48:31;51.08;34.78;85.51;;
58303;Laerm;44109;52.398;7.024;2023-10-31T04:50:59;46.17;36.37;56.36;;
58303;Laerm;44109;52.398;7.024;2023-10-31T04:53:26;46.76;35.30;74.18;;
58303;Laerm;44109;52.398;7.024;2023-10-31T04:55:53;61.30;34.51;97.45;;
58303;Laerm;44109;52.398;7.024;2023-10-31T04:58:22;56.17;36.84;89.73;;
58303;Laerm;44109;52.398;7.024;2023-10-31T05:00:49;45.66;35.29;55.66;;
58303;Laerm;44109;52.398;7.024;2023-10-31T05:03:17;45.90;34.38;55.25;;
58303;Laerm;44109;52.398;7.024;2023-10-31T05:05:44;46.45;36.30;55.77;;
58303;Laerm;44109;52.398;7.024;2023-10-31T05:08:12;46.28;36.16;55.85;;
58303;Laerm;44109;52.398;7.024;2023-10-31T05:10:39;46.08;34.84;63.12;;
58303;Laerm;44109;52.398;7.024;2023-10-31T05:13:07;47.44;38.89;71.19;;
58303;Laerm;44109;52.398;7.024;2023-10-31T05:15:35;46.42;36.84;63.18;;
58303;Laerm;44109;52.398;7.024;2023-10-31T05:18:03;51.28;37.24;83.98;;
58303;Laerm;44109;52.398;7.024;2023-10-31T05:20:30;46.84;36.19;67.86;;
58303;Laerm;44109;52.398;7.024;2023-10-31T05:22:58;45.74;34.04;55.94;;
58303;Laerm;44109;52.398;7.024;2023-10-31T05:25:25;52.99;37.51;86.00;;
58303;Laerm;44109;52.398;7.024;2023-10-31T05:27:52;48.37;38.07;73.31;;
58303;Laerm;44109;52.398;7.024;2023-10-31T05:30:20;55.41;40.14;90.20;;
58303;Laerm;44109;52.398;7.024;2023-10-31T05:32:49;56.99;44.07;86.01;;
58303;Laerm;44109;52.398;7.024;2023-10-31T05:35:17;62.94;40.77;95.08;;
58303;Laerm;44109;52.398;7.024;2023-10-31T05:37:46;49.06;37.13;76.80;;
58303;Laerm;44109;52.398;7.024;2023-10-31T05:40:14;52.94;38.77;84.64;;
58303;Laerm;44109;52.398;7.024;2023-10-31T05:42:42;54.68;38.83;89.18;;
58303;Laerm;44109;52.398;7.024;2023-10-31T05:45:10;53.71;37.25;88.91;;
58303;Laerm;44109;52.398;7.024;2023-10-31T05:47:37;48.63;37.65;72.89;;
58303;Laerm;44109;52.398;7.024;2023-10-31T05:50:08;50.68;41.51;78.48;;
58303;Laerm;44109;52.398;7.024;2023-10-31T05:52:35;62.10;39.30;97.89;;
58303;Laerm;44109;52.398;7.024;2023-10-31T05:55:04;51.51;38.51;80.36;;
58303;Laerm;44109;52.398;7.024;2023-10-31T05:57:32;50.95;38.19;75.52;;
58303;Laerm;44109;52.398;7.024;2023-10-31T05:59:59;49.87;38.53;82.23;;
58303;Laerm;44109;52.398;7.024;2023-10-31T06:02:26;66.48;40.24;98.52;;
58303;Laerm;44109;52.398;7.024;2023-10-31T06:04:56;51.65;40.26;80.98;;
58303;Laerm;44109;52.398;7.024;2023-10-31T06:07:24;67.08;38.43;102.03;;
58303;Laerm;44109;52.398;7.024;2023-10-31T06:09:52;65.05;39.39;99.59;;
58303;Laerm;44109;52.398;7.024;2023-10-31T06:12:19;62.65;37.68;97.42;;
58303;Laerm;44109;52.398;7.024;2023-10-31T06:14:47;62.11;37.86;96.61;;
58303;Laerm;44109;52.398;7.024;2023-10-31T06:17:14;59.49;39.05;95.47;;
58303;Laerm;44109;52.398;7.024;2023-10-31T06:19:41;50.40;37.78;84.22;;
58303;Laerm;44109;52.398;7.024;2023-10-31T06:22:11;60.51;38.24;96.60;;
58303;Laerm;44109;52.398;7.024;2023-10-31T06:24:40;52.95;38.72;87.53;;
58303;Laerm;44109;52.398;7.024;2023-10-31T06:27:08;48.43;37.89;75.55;;
58303;Laerm;44109;52.398;7.024;2023-10-31T06:29:35;47.58;38.90;69.78;;
58303;Laerm;44109;52.398;7.024;2023-10-31T06:32:03;46.73;38.92;61.58;;
58303;Laerm;44109;52.398;7.024;2023-10-31T06:34:30;48.70;38.77;79.06;;
58303;Laerm;44109;52.398;7.024;2023-10-31T06:36:58;47.85;38.66;66.34;;
58303;Laerm;44109;52.398;7.024;2023-10-31T06:39:25;54.64;38.11;89.98;;
58303;Laerm;44109;52.398;7.024;2023-10-31T06:41:55;47.69;39.46;73.38;;
58303;Laerm;44109;52.398;7.024;2023-10-31T06:44:23;49.13;40.04;75.95;;
58303;Laerm;44109;52.398;7.024;2023-10-31T06:46:50;47.55;38.78;70.59;;
58303;Laerm;44109;52.398;7.024;2023-10-31T06:49:17;47.10;37.70;64.39;;
58303;Laerm;44109;52.398;7.024;2023-10-31T06:51:45;48.43;39.83;68.01;;
58303;Laerm;44109;52.398;7.024;2023-10-31T06:54:13;51.78;38.40;68.13;;
58303;Laerm;44109;52.398;7.024;2023-10-31T06:56:40;46.73;35.89;58.94;;
58303;Laerm;44109;52.398;7.024;2023-10-31T06:59:09;55.43;36.95;90.67;;
58303;Laerm;44109;52.398;7.024;2023-10-31T07:01:36;49.84;40.12;71.30;;
58303;Laerm;44109;52.398;7.024;2023-10-31T07:04:04;51.50;39.34;71.96;;
58303;Laerm;44109;52.398;7.024;2023-10-31T07:06:32;47.60;38.18;65.90;;
58303;Laerm;44109;52.398;7.024;2023-10-31T07:09:00;46.92;38.52;55.96;;
58303;Laerm;44109;52.398;7.024;2023-10-31T07:11:31;47.94;39.35;61.97;;
58303;Laerm;44109;52.398;7.024;2023-10-31T07:14:00;47.70;39.69;55.69;;
58303;Laerm;44109;52.398;7.024;2023-10-31T07:16:29;49.17;40.30;78.24;;
58303;Laerm;44109;52.398;7.024;2023-10-31T07:18:57;50.47;39.97;69.53;;
58303;Laerm;44109;52.398;7.024;2023-10-31T07:21:24;52.79;40.23;71.54;;
58303;Laerm;44109;52.398;7.024;2023-10-31T07:23:52;50.73;38.70;66.88;;
58303;Laerm;44109;52.398;7.024;2023-10-31T07:26:20;47.49;39.21;58.60;;
58303;Laerm;44109;52.398;7.024;2023-10-31T07:28:47;50.05;40.05;75.73;;
58303;Laerm;44109;52.398;7.024;2023-10-31T07:31:15;50.11;42.85;67.22;;
58303;Laerm;44109;52.398;7.024;2023-10-31T07:33:45;49.91;41.47;68.89;;
58303;Laerm;44109;52.398;7.024;2023-10-31T07:36:13;50.65;40.89;70.61;;
58303;Laerm;44109;52.398;7.024;2023-10-31T07:38:40;48.92;40.61;64.37;;
58303;Laerm;44109;52.398;7.024;2023-10-31T07:41:08;48.44;39.59;65.05;;
58303;Laerm;44109;52.398;7.024;2023-10-31T07:43:35;49.78;41.50;62.52;;
58303;Laerm;44109;52.398;7.024;2023-10-31T07:46:03;50.11;40.96;65.95;;
58303;Laerm;44109;52.398;7.024;2023-10-31T07:48:34;49.73;41.75;63.64;;
58303;Laerm;44109;52.398;7.024;2023-10-31T07:51:03;50.75;41.64;67.88;;
58303;Laerm;44109;52.398;7.024;2023-10-31T07:53:31;50.24;41.20;69.63;;
58303;Laerm;44109;52.398;7.024;2023-10-31T07:55:58;51.01;41.51;66.03;;
58303;Laerm;44109;52.398;7.024;2023-10-31T07:58:26;52.63;44.11;68.99;;
58303;Laerm;44109;52.398;7.024;2023-10-31T08:00:53;47.61;39.38;59.88;;
58303;Laerm;44109;52.398;7.024;2023-10-31T08:03:20;51.18;41.19;61.05;;
58303;Laerm;44109;52.398;7.024;2023-10-31T08:05:48;48.16;41.25;65.06;;
58303;Laerm;44109;52.398;7.024;2023-10-31T08:08:17;49.84;41.46;67.30;;
58303;Laerm;44109;52.398;7.024;2023-10-31T08:10:44;47.85;38.33;60.13;;
58303;Laerm;44109;52.398;7.024;2023-10-31T08:13:11;49.65;40.47;71.14;;
58303;Laerm;44109;52.398;7.024;2023-10-31T08:15:39;50.50;42.59;67.37;;
58303;Laerm;44109;52.398;7.024;2023-10-31T08:18:07;52.39;41.09;71.33;;
58303;Laerm;44109;52.398;7.024;2023-10-31T08:20:34;50.43;40.88;65.93;;
58303;Laerm;44109;52.398;7.024;2023-10-31T08:23:01;49.57;41.95;67.66;;
58303;Laerm;44109;52.398;7.024;2023-10-31T08:25:30;48.48;41.52;56.83;;
58303;Laerm;44109;52.398;7.024;2023-10-31T08:27:57;47.84;40.77;57.97;;
58303;Laerm;44109;52.398;7.024;2023-10-31T08:30:25;47.86;39.82;63.93;;
58303;Laerm;44109;52.398;7.024;2023-10-31T08:32:52;48.15;39.89;60.24;;
58303;Laerm;44109;52.398;7.024;2023-10-31T08:35:20;47.76;39.60;61.91;;
58303;Laerm;44109;52.398;7.024;2023-10-31T08:37:50;49.35;40.05;59.52;;
58303;Laerm;44109;52.398;7.024;2023-10-31T08:40:17;50.31;44.58;61.21;;
58303;Laerm;44109;52.398;7.024;2023-10-31T08:42:46;48.09;39.73;56.75;;
58303;Laerm;44109;52.398;7.024;2023-10-31T08:45:13;52.07;40.15;63.44;;
58303;Laerm;44109;52.398;7.024;2023-10-31T08:47:41;48.76;41.56;65.11;;
58303;Laerm;44109;52.398;7.024;2023-10-31T08:50:08;49.28;40.45;63.16;;
58303;Laerm;44109;52.398;7.024;2023-10-31T08:52:38;48.66;41.68;59.30;;
58303;Laerm;44109;52.398;7.024;2023-10-31T08:55:06;49.50;39.66;67.86;;
58303;Laerm;44109;52.398;7.024;2023-10-31T08:57:34;49.86;42.11;65.21;;
58303;Laerm;44109;52.398;7.024;2023-10-31T09:00:04;49.05;41.05;72.91;;
58303;Laerm;44109;52.398;7.024;2023-10-31T09:02:32;50.06;42.23;60.62;;
58303;Laerm;44109;52.398;7.024;2023-10-31T09:04:59;48.21;41.77;56.27;;
58303;Laerm;44109;52.398;7.024;2023-10-31T09:07:27;48.96;42.06;60.66;;
58303;Laerm;44109;52.398;7.024;2023-10-31T09:09:54;50.22;42.04;57.48;;
58303;Laerm;44109;52.398;7.024;2023-10-31T09:12:21;48.81;41.71;59.35;;
58303;Laerm;44109;52.398;7.024;2023-10-31T09:14:49;50.55;40.85;61.56;;
58303;Laerm;44109;52.398;7.024;2023-10-31T09:17:18;49.37;41.70;60.86;;
58303;Laerm;44109;52.398;7.024;2023-10-31T09:19:45;52.35;43.85;74.62;;
58303;Laerm;44109;52.398;7.024;2023-10-31T09:22:12;49.97;43.81;60.33;;
58303;Laerm;44109;52.398;7.024;2023-10-31T09:24:40;48.50;39.89;58.10;;
58303;Laerm;44109;52.398;7.024;2023-10-31T09:27:07;49.21;41.41;64.93;;
58303;Laerm;44109;52.398;7.024;2023-10-31T09:29:34;48.82;40.57;58.08;;
58303;Laerm;44109;52.398;7.024;2023-10-31T09:32:02;48.34;40.07;56.58;;
58303;Laerm;44109;52.398;7.024;2023-10-31T09:34:33;48.55;41.13;56.51;;
58303;Laerm;44109;52.398;7.024;2023-10-31T09:37:00;48.98;40.88;63.61;;
58303;Laerm;44109;52.398;7.024;2023-10-31T09:39:27;49.61;40.76;58.70;;
58303;Laerm;44109;52.398;7.024;2023-10-31T09:41:55;49.08;41.52;67.32;;
58303;Laerm;44109;52.398;7.024;2023-10-31T09:44:22;49.56;40.87;62.14;;
58303;Laerm;44109;52.398;7.024;2023-10-31T09:46:51;49.32;42.48;57.55;;
58303;Laerm;44109;52.398;7.024;2023-10-31T09:49:19;50.11;41.38;61.17;;
58303;Laerm;44109;52.398;7.024;2023-10-31T09:51:48;49.65;41.47;60.81;;
58303;Laerm;44109;52.398;7.024;2023-10-31T09:54:17;49.01;41.92;59.43;;
58303;Laerm;44109;52.398;7.024;2023-10-31T09:56:44;48.72;40.93;62.03;;
58303;Laerm;44109;52.398;7.024;2023-10-31T09:59:14;48.68;40.96;59.36;;
58303;Laerm;44109;52.398;7.024;2023-10-31T10:01:42;52.38;42.42;68.89;;
58303;Laerm;44109;52.398;7.024;2023-10-31T10:04:09;49.05;41.30;63.64;;
58303;Laerm;44109;52.398;7.024;2023-10-31T10:06:49;50.55;41.31;57.35;;
58303;Laerm;44109;52.398;7.024;2023-10-31T10:09:17;50.71;43.67;64.93;;
58303;Laerm;44109;52.398;7.024;2023-10-31T10:11:45;49.78;41.27;69.77;;
58303;Laerm;44109;52.398;7.024;2023-10-31T10:14:12;49.15;42.30;57.44;;
58303;Laerm;44109;52.398;7.024;2023-10-31T10:16:40;50.76;42.87;69.78;;
58303;Laerm;44109;52.398;7.024;2023-10-31T10:19:18;50.78;42.31;69.43;;
58303;Laerm;44109;52.398;7.024;2023-10-31T10:21:52;50.55;42.52;62.30;;
58303;Laerm;44109;52.398;7.024;2023-10-31T10:24:21;48.66;40.73;60.35;;
58303;Laerm;44109;52.398;7.024;2023-10-31T10:26:50;49.52;41.33;63.43;;
58303;Laerm;44109;52.398;7.024;2023-10-31T10:29:18;49.80;41.38;64.36;;
58303;Laerm;44109;52.398;7.024;2023-10-31T10:31:46;47.89;40.54;61.10;;
58303;Laerm;44109;52.398;7.024;2023-10-31T10:34:15;49.76;41.08;69.34;;
58303;Laerm;44109;52.398;7.024;2023-10-31T10:36:47;49.73;42.29;65.21;;
58303;Laerm;44109;52.398;7.024;2023-10-31T10:39:20;49.10;41.52;61.31;;
58303;Laerm;44109;52.398;7.024;2023-10-31T10:41:52;48.24;40.52;60.22;;
58303;Laerm;44109;52.398;7.024;2023-10-31T10:44:31;49.90;44.28;68.50;;
58303;Laerm;44109;52.398;7.024;2023-10-31T10:47:03;51.22;44.29;58.99;;
58303;Laerm;44109;52.398;7.024;2023-10-31T10:49:34;50.71;45.16;61.52;;
58303;Laerm;44109;52.398;7.024;2023-10-31T10:52:14;51.09;45.71;60.27;;
58303;Laerm;44109;52.398;7.024;2023-10-31T10:54:52;50.19;45.20;62.95;;
58303;Laerm;44109;52.398;7.024;2023-10-31T10:57:32;50.32;44.65;60.10;;
58303;Laerm;44109;52.398;7.024;2023-10-31T11:00:05;50.63;42.58;64.51;;
58303;Laerm;44109;52.398;7.024;2023-10-31T11:02:36;52.42;39.92;80.53;;
58303;Laerm;44109;52.398;7.024;2023-10-31T11:05:06;49.21;41.06;60.26;;
58303;Laerm;44109;52.398;7.024;2023-10-31T11:07:35;49.77;40.40;67.13;;
58303;Laerm;44109;52.398;7.024;2023-10-31T11:10:06;52.11;41.81;72.61;;
58303;Laerm;44109;52.398;7.024;2023-10-31T11:12:36;49.62;42.55;68.87;;
58303;Laerm;44109;52.398;7.024;2023-10-31T11:15:06;51.07;42.78;67.10;;
58303;Laerm;44109;52.398;7.024;2023-10-31T11:17:38;50.40;40.03;64.18;;
58303;Laerm;44109;52.398;7.024;2023-10-31T11:20:09;48.91;40.69;65.03;;
58303;Laerm;44109;52.398;7.024;2023-10-31T11:22:38;54.38;40.06;71.68;;
58303;Laerm;44109;52.398;7.024;2023-10-31T11:25:09;54.68;41.11;72.61;;
58303;Laerm;44109;52.398;7.024;2023-10-31T11:27:37;51.82;40.27;69.01;;
58303;Laerm;44109;52.398;7.024;2023-10-31T11:30:20;49.04;40.44;64.78;;
58303;Laerm;44109;52.398;7.024;2023-10-31T11:32:48;49.12;40.90;64.79;;
58303;Laerm;44109;52.398;7.024;2023-10-31T11:35:16;50.78;40.51;71.14;;
58303;Laerm;44109;52.398;7.024;2023-10-31T11:37:48;51.48;47.36;61.76;;
58303;Laerm;44109;52.398;7.024;2023-10-31T11:40:21;51.46;46.62;61.99;;
58303;Laerm;44109;52.398;7.024;2023-10-31T11:42:51;52.59;46.75;62.18;;
58303;Laerm;44109;52.398;7.024;2023-10-31T11:45:28;50.34;42.04;57.14;;
58303;Laerm;44109;52.398;7.024;2023-10-31T11:47:56;51.28;44.13;57.30;;
58303;Laerm;44109;52.398;7.024;2023-10-31T11:50:24;51.45;43.71;72.53;;
58303;Laerm;44109;52.398;7.024;2023-10-31T11:53:03;50.90;44.65;59.27;;
58303;Laerm;44109;52.398;7.024;2023-10-31T11:55:35;50.49;44.15;57.92;;
58303;Laerm;44109;52.398;7.024;2023-10-31T11:58:20;49.97;43.07;68.56;;
58303;Laerm;44109;52.398;7.024;2023-10-31T12:00:49;52.93;43.22;68.24;;
58303;Laerm;44109;52.398;7.024;2023-10-31T12:03:19;54.30;43.30;65.73;;
58303;Laerm;44109;52.398;7.024;2023-10-31T12:05:55;52.50;42.96;68.18;;
58303;Laerm;44109;52.398;7.024;2023-10-31T12:08:27;50.83;42.88;60.24;;
58303;Laerm;44109;52.398;7.024;2023-10-31T12:11:06;50.09;43.16;57.71;;
58303;Laerm;44109;52.398;7.024;2023-10-31T12:13:36;51.41;42.95;68.60;;
58303;Laerm;44109;52.398;7.024;2023-10-31T12:16:05;49.62;41.06;62.33;;
58303;Laerm;44109;52.398;7.024;2023-10-31T12:18:33;50.36;41.48;58.92;;
58303;Laerm;44109;52.398;7.024;2023-10-31T12:21:02;52.03;43.30;64.85;;
58303;Laerm;44109;52.398;7.024;2023-10-31T12:23:29;49.56;41.50;61.92;;
58303;Laerm;44109;52.398;7.024;2023-10-31T12:25:57;49.26;41.03;58.58;;
58303;Laerm;44109;52.398;7.024;2023-10-31T12:28:26;49.85;42.65;57.11;;
58303;Laerm;44109;52.398;7.024;2023-10-31T12:30:55;49.76;41.67;66.28;;
58303;Laerm;44109;52.398;7.024;2023-10-31T12:33:26;49.63;41.74;59.85;;
58303;Laerm;44109;52.398;7.024;2023-10-31T12:35:58;49.57;41.66;60.76;;
58303;Laerm;44109;52.398;7.024;2023-10-31T12:38:28;49.94;39.74;70.83;;
58303;Laerm;44109;52.398;7.024;2023-10-31T12:40:57;48.87;40.46;58.15;;
58303;Laerm;44109;52.398;7.024;2023-10-31T12:43:26;49.68;40.62;57.40;;
58303;Laerm;44109;52.398;7.024;2023-10-31T12:45:55;48.64;39.41;57.86;;
58303;Laerm;44109;52.398;7.024;2023-10-31T12:48:24;49.31;42.02;66.14;;
58303;Laerm;44109;52.398;7.024;2023-10-31T12:51:06;48.65;38.70;61.70;;
58303;Laerm;44109;52.398;7.024;2023-10-31T12:53:35;48.70;39.41;63.97;;
58303;Laerm;44109;52.398;7.024;2023-10-31T12:56:03;48.34;39.14;59.34;;
58303;Laerm;44109;52.398;7.024;2023-10-31T12:58:32;48.67;39.72;61.65;;
58303;Laerm;44109;52.398;7.024;2023-10-31T13:01:00;50.11;41.01;65.31;;
58303;Laerm;44109;52.398;7.024;2023-10-31T13:03:28;48.62;39.37;61.34;;
58303;Laerm;44109;52.398;7.024;2023-10-31T13:05:55;48.73;38.99;58.57;;
58303;Laerm;44109;52.398;7.024;2023-10-31T13:08:22;48.48;40.07;58.49;;
58303;Laerm;44109;52.398;7.024;2023-10-31T13:10:50;48.67;39.93;62.21;;
58303;Laerm;44109;52.398;7.024;2023-10-31T13:13:19;48.58;39.68;61.79;;
58303;Laerm;44109;52.398;7.024;2023-10-31T13:15:47;48.42;38.92;61.48;;
58303;Laerm;44109;52.398;7.024;2023-10-31T13:18:15;48.34;39.28;57.44;;
58303;Laerm;44109;52.398;7.024;2023-10-31T13:20:42;49.55;37.95;72.32;;
58303;Laerm;44109;52.398;7.024;2023-10-31T13:23:10;49.06;37.63;63.78;;
58303;Laerm;44109;52.398;7.024;2023-10-31T13:25:38;50.97;38.43;68.26;;
58303;Laerm;44109;52.398;7.024;2023-10-31T13:28:05;49.10;38.65;64.00;;
58303;Laerm;44109;52.398;7.024;2023-10-31T13:30:35;48.31;38.22;58.34;;
58303;Laerm;44109;52.398;7.024;2023-10-31T13:33:04;48.28;38.21;60.63;;
58303;Laerm;44109;52.398;7.024;2023-10-31T13:35:31;48.49;38.34;62.88;;
58303;Laerm;44109;52.398;7.024;2023-10-31T13:38:00;48.60;37.42;62.86;;
58303;Laerm;44109;52.398;7.024;2023-10-31T13:40:27;48.32;37.68;57.47;;
58303;Laerm;44109;52.398;7.024;2023-10-31T13:42:55;48.69;37.80;58.78;;
58303;Laerm;44109;52.398;7.024;2023-10-31T13:45:22;49.53;38.92;65.83;;
58303;Laerm;44109;52.398;7.024;2023-10-31T13:47:50;48.50;37.51;61.33;;
58303;Laerm;44109;52.398;7.024;2023-10-31T13:50:18;48.35;38.53;57.07;;